sensor_id;sensor_type;location;lat;lon;timestamp;temperature;humidity
34837;DHT22;21053;50.848;4.652;2023-05-10T00:01:54;14.60;99.90
34837;DHT22;21053;50.848;4.652;2023-05-10T00:04:20;14.70;99.90
34837;DHT22;21053;50.848;4.652;2023-05-10T00:06:49;14.60;99.90
34837;DHT22;21053;50.848;4.652;2023-05-10T00:09:15;14.60;99.90
34837;DHT22;21053;50.848;4.652;2023-05-10T00:11:41;14.60;99.90
34837;DHT22;21053;50.848;4.652;2023-05-10T00:14:07;14.60;99.90
34837;DHT22;21053;50.848;4.652;2023-05-10T00:16:34;14.60;99.90
34837;DHT22;21053;50.848;4.652;2023-05-10T00:19:01;14.60;99.90
34837;DHT22;21053;50.848;4.652;2023-05-10T00:21:28;14.70;99.90
34837;DHT22;21053;50.848;4.652;2023-05-10T00:23:57;14.60;99.90
34837;DHT22;21053;50.848;4.652;2023-05-10T00:26:26;14.70;99.90
34837;DHT22;21053;50.848;4.652;2023-05-10T00:28:56;14.70;99.90
34837;DHT22;21053;50.848;4.652;2023-05-10T00:31:25;14.60;99.90
34837;DHT22;21053;50.848;4.652;2023-05-10T00:33:59;14.70;99.90
34837;DHT22;21053;50.848;4.652;2023-05-10T00:36:26;14.60;99.90
34837;DHT22;21053;50.848;4.652;2023-05-10T00:38:56;14.70;99.90
34837;DHT22;21053;50.848;4.652;2023-05-10T00:41:22;14.80;99.90
34837;DHT22;21053;50.848;4.652;2023-05-10T00:43:49;14.70;99.90
34837;DHT22;21053;50.848;4.652;2023-05-10T00:46:16;14.60;99.90
34837;DHT22;21053;50.848;4.652;2023-05-10T00:48:45;14.60;99.90
34837;DHT22;21053;50.848;4.652;2023-05-10T00:51:11;14.70;99.90
34837;DHT22;21053;50.848;4.652;2023-05-10T00:53:38;14.60;99.90
34837;DHT22;21053;50.848;4.652;2023-05-10T00:56:03;14.60;99.90
34837;DHT22;21053;50.848;4.652;2023-05-10T00:58:32;14.70;99.90
34837;DHT22;21053;50.848;4.652;2023-05-10T01:00:58;14.60;99.90
34837;DHT22;21053;50.848;4.652;2023-05-10T01:03:29;14.60;99.90
34837;DHT22;21053;50.848;4.652;2023-05-10T01:05:57;14.50;99.90
34837;DHT22;21053;50.848;4.652;2023-05-10T01:08:26;14.50;99.90
34837;DHT22;21053;50.848;4.652;2023-05-10T01:10:54;14.50;99.90
34837;DHT22;21053;50.848;4.652;2023-05-10T01:13:41;14.50;99.90
34837;DHT22;21053;50.848;4.652;2023-05-10T01:16:10;14.60;99.90
34837;DHT22;21053;50.848;4.652;2023-05-10T01:18:40;14.50;99.90
34837;DHT22;21053;50.848;4.652;2023-05-10T01:24:09;14.60;99.90
34837;DHT22;21053;50.848;4.652;2023-05-10T01:27:11;14.70;99.90
34837;DHT22;21053;50.848;4.652;2023-05-10T01:30:07;14.60;99.90
34837;DHT22;21053;50.848;4.652;2023-05-10T01:32:43;14.50;99.90
34837;DHT22;21053;50.848;4.652;2023-05-10T01:35:23;14.50;99.90
34837;DHT22;21053;50.848;4.652;2023-05-10T01:38:09;14.50;99.90
34837;DHT22;21053;50.848;4.652;2023-05-10T01:41:07;14.50;99.90
34837;DHT22;21053;50.848;4.652;2023-05-10T01:46:33;14.40;99.90
34837;DHT22;21053;50.848;4.652;2023-05-10T01:49:07;14.50;99.90
34837;DHT22;21053;50.848;4.652;2023-05-10T01:51:41;14.50;99.90
34837;DHT22;21053;50.848;4.652;2023-05-10T01:54:09;14.50;99.90
34837;DHT22;21053;50.848;4.652;2023-05-10T01:56:37;14.50;99.90
34837;DHT22;21053;50.848;4.652;2023-05-10T01:59:09;14.50;99.90
34837;DHT22;21053;50.848;4.652;2023-05-10T02:01:40;14.50;99.90
34837;DHT22;21053;50.848;4.652;2023-05-10T02:04:09;14.50;99.90
34837;DHT22;21053;50.848;4.652;2023-05-10T02:06:38;14.50;99.90
34837;DHT22;21053;50.848;4.652;2023-05-10T02:09:08;14.50;99.90
34837;DHT22;21053;50.848;4.652;2023-05-10T02:11:35;14.50;99.90
34837;DHT22;21053;50.848;4.652;2023-05-10T02:14:03;14.60;99.90
34837;DHT22;21053;50.848;4.652;2023-05-10T02:16:32;14.60;99.90
34837;DHT22;21053;50.848;4.652;2023-05-10T02:19:01;14.60;99.90
34837;DHT22;21053;50.848;4.652;2023-05-10T02:21:29;14.60;99.90
34837;DHT22;21053;50.848;4.652;2023-05-10T02:23:58;14.60;99.90
34837;DHT22;21053;50.848;4.652;2023-05-10T02:26:26;14.50;99.90
34837;DHT22;21053;50.848;4.652;2023-05-10T02:28:53;14.50;99.90
34837;DHT22;21053;50.848;4.652;2023-05-10T02:31:19;14.50;99.90
34837;DHT22;21053;50.848;4.652;2023-05-10T02:33:49;14.50;99.90
34837;DHT22;21053;50.848;4.652;2023-05-10T02:36:19;14.50;99.90
34837;DHT22;21053;50.848;4.652;2023-05-10T02:38:49;14.60;99.90
34837;DHT22;21053;50.848;4.652;2023-05-10T02:41:19;14.60;99.90
34837;DHT22;21053;50.848;4.652;2023-05-10T02:43:53;14.50;99.90
34837;DHT22;21053;50.848;4.652;2023-05-10T02:46:24;14.50;99.90
34837;DHT22;21053;50.848;4.652;2023-05-10T02:48:50;14.60;99.90
34837;DHT22;21053;50.848;4.652;2023-05-10T02:51:18;14.60;99.90
34837;DHT22;21053;50.848;4.652;2023-05-10T02:53:53;14.60;99.90
34837;DHT22;21053;50.848;4.652;2023-05-10T02:56:25;14.60;99.90
34837;DHT22;21053;50.848;4.652;2023-05-10T02:58:52;14.60;99.90
34837;DHT22;21053;50.848;4.652;2023-05-10T03:01:20;14.60;99.90
34837;DHT22;21053;50.848;4.652;2023-05-10T03:03:47;14.50;99.90
34837;DHT22;21053;50.848;4.652;2023-05-10T03:06:19;14.50;99.90
34837;DHT22;21053;50.848;4.652;2023-05-10T03:08:45;14.50;99.90
34837;DHT22;21053;50.848;4.652;2023-05-10T03:11:24;14.50;99.90
34837;DHT22;21053;50.848;4.652;2023-05-10T03:14:49;14.60;99.90
34837;DHT22;21053;50.848;4.652;2023-05-10T03:17:02;14.60;99.90
34837;DHT22;21053;50.848;4.652;2023-05-10T03:19:35;14.70;99.90
34837;DHT22;21053;50.848;4.652;2023-05-10T03:22:06;14.70;99.90
34837;DHT22;21053;50.848;4.652;2023-05-10T03:24:39;14.50;99.90
34837;DHT22;21053;50.848;4.652;2023-05-10T03:27:08;14.40;99.90
34837;DHT22;21053;50.848;4.652;2023-05-10T03:29:35;14.40;99.90
34837;DHT22;21053;50.848;4.652;2023-05-10T03:32:02;14.50;99.90
34837;DHT22;21053;50.848;4.652;2023-05-10T03:34:31;14.50;99.90
34837;DHT22;21053;50.848;4.652;2023-05-10T03:36:57;14.50;99.90
34837;DHT22;21053;50.848;4.652;2023-05-10T03:39:26;14.50;99.90
34837;DHT22;21053;50.848;4.652;2023-05-10T03:41:57;14.40;99.90
34837;DHT22;21053;50.848;4.652;2023-05-10T03:44:26;14.40;99.90
34837;DHT22;21053;50.848;4.652;2023-05-10T03:46:54;14.50;99.90
34837;DHT22;21053;50.848;4.652;2023-05-10T03:49:21;14.60;99.90
34837;DHT22;21053;50.848;4.652;2023-05-10T03:51:50;14.50;99.90
34837;DHT22;21053;50.848;4.652;2023-05-10T03:54:18;14.40;99.90
34837;DHT22;21053;50.848;4.652;2023-05-10T03:56:43;14.30;99.90
34837;DHT22;21053;50.848;4.652;2023-05-10T03:59:09;14.30;99.90
34837;DHT22;21053;50.848;4.652;2023-05-10T04:01:37;14.30;99.90
34837;DHT22;21053;50.848;4.652;2023-05-10T04:04:04;14.30;99.90
34837;DHT22;21053;50.848;4.652;2023-05-10T04:06:33;14.40;99.90
34837;DHT22;21053;50.848;4.652;2023-05-10T04:08:59;14.30;99.90
34837;DHT22;21053;50.848;4.652;2023-05-10T04:11:26;14.10;99.90
34837;DHT22;21053;50.848;4.652;2023-05-10T04:13:53;14.20;99.90
34837;DHT22;21053;50.848;4.652;2023-05-10T04:16:20;14.20;99.90
34837;DHT22;21053;50.848;4.652;2023-05-10T04:18:46;14.20;99.90
34837;DHT22;21053;50.848;4.652;2023-05-10T04:21:14;14.20;99.90
34837;DHT22;21053;50.848;4.652;2023-05-10T04:23:42;14.20;99.90
34837;DHT22;21053;50.848;4.652;2023-05-10T04:26:08;14.30;99.90
34837;DHT22;21053;50.848;4.652;2023-05-10T04:28:34;14.20;99.90
34837;DHT22;21053;50.848;4.652;2023-05-10T04:31:04;14.10;99.90
34837;DHT22;21053;50.848;4.652;2023-05-10T04:33:30;14.00;99.90
34837;DHT22;21053;50.848;4.652;2023-05-10T04:36:02;14.10;99.90
34837;DHT22;21053;50.848;4.652;2023-05-10T04:38:29;14.10;99.90
34837;DHT22;21053;50.848;4.652;2023-05-10T04:41:09;14.10;99.90
34837;DHT22;21053;50.848;4.652;2023-05-10T04:43:38;14.20;99.90
34837;DHT22;21053;50.848;4.652;2023-05-10T04:46:05;14.20;99.90
34837;DHT22;21053;50.848;4.652;2023-05-10T04:48:31;14.20;99.90
34837;DHT22;21053;50.848;4.652;2023-05-10T04:50:58;14.20;99.90
34837;DHT22;21053;50.848;4.652;2023-05-10T04:53:24;14.20;99.90
34837;DHT22;21053;50.848;4.652;2023-05-10T04:55:49;14.30;99.90
34837;DHT22;21053;50.848;4.652;2023-05-10T04:58:15;14.40;99.90
34837;DHT22;21053;50.848;4.652;2023-05-10T05:00:44;14.30;99.90
34837;DHT22;21053;50.848;4.652;2023-05-10T05:03:11;14.20;99.90
34837;DHT22;21053;50.848;4.652;2023-05-10T05:05:38;14.10;99.90
34837;DHT22;21053;50.848;4.652;2023-05-10T05:08:04;14.30;99.90
34837;DHT22;21053;50.848;4.652;2023-05-10T05:10:30;14.30;99.90
34837;DHT22;21053;50.848;4.652;2023-05-10T05:12:56;14.50;99.90
34837;DHT22;21053;50.848;4.652;2023-05-10T05:15:25;14.50;99.90
34837;DHT22;21053;50.848;4.652;2023-05-10T05:17:51;14.50;99.90
34837;DHT22;21053;50.848;4.652;2023-05-10T05:20:17;14.60;99.90
34837;DHT22;21053;50.848;4.652;2023-05-10T05:22:47;14.70;99.90
34837;DHT22;21053;50.848;4.652;2023-05-10T05:25:13;14.50;99.90
34837;DHT22;21053;50.848;4.652;2023-05-10T05:27:40;14.50;99.90
34837;DHT22;21053;50.848;4.652;2023-05-10T05:30:06;14.50;99.90
34837;DHT22;21053;50.848;4.652;2023-05-10T05:32:34;14.60;99.90
34837;DHT22;21053;50.848;4.652;2023-05-10T05:35:01;14.60;99.90
34837;DHT22;21053;50.848;4.652;2023-05-10T05:37:29;14.60;99.90
34837;DHT22;21053;50.848;4.652;2023-05-10T05:39:58;14.60;99.90
34837;DHT22;21053;50.848;4.652;2023-05-10T05:42:24;14.50;99.90
34837;DHT22;21053;50.848;4.652;2023-05-10T05:44:54;14.70;99.90
34837;DHT22;21053;50.848;4.652;2023-05-10T05:47:22;14.70;99.90
34837;DHT22;21053;50.848;4.652;2023-05-10T05:49:48;14.80;99.90
34837;DHT22;21053;50.848;4.652;2023-05-10T05:52:14;14.80;99.90
34837;DHT22;21053;50.848;4.652;2023-05-10T05:54:42;14.80;99.90
34837;DHT22;21053;50.848;4.652;2023-05-10T05:57:09;14.80;99.90
34837;DHT22;21053;50.848;4.652;2023-05-10T05:59:35;14.90;99.90
34837;DHT22;21053;50.848;4.652;2023-05-10T06:02:02;14.90;99.90
34837;DHT22;21053;50.848;4.652;2023-05-10T06:04:28;15.00;99.90
34837;DHT22;21053;50.848;4.652;2023-05-10T06:06:54;15.00;99.90
34837;DHT22;21053;50.848;4.652;2023-05-10T06:09:20;15.10;99.90
34837;DHT22;21053;50.848;4.652;2023-05-10T06:11:46;15.10;99.90
34837;DHT22;21053;50.848;4.652;2023-05-10T06:14:13;15.00;99.90
34837;DHT22;21053;50.848;4.652;2023-05-10T06:16:40;15.10;99.90
34837;DHT22;21053;50.848;4.652;2023-05-10T06:19:06;15.10;99.90
34837;DHT22;21053;50.848;4.652;2023-05-10T06:21:33;15.20;99.90
34837;DHT22;21053;50.848;4.652;2023-05-10T06:24:01;15.20;99.90
34837;DHT22;21053;50.848;4.652;2023-05-10T06:26:29;15.10;99.90
34837;DHT22;21053;50.848;4.652;2023-05-10T06:28:55;15.30;99.90
34837;DHT22;21053;50.848;4.652;2023-05-10T06:31:21;15.40;99.90
34837;DHT22;21053;50.848;4.652;2023-05-10T06:33:50;15.50;99.90
34837;DHT22;21053;50.848;4.652;2023-05-10T06:36:19;15.50;99.90
34837;DHT22;21053;50.848;4.652;2023-05-10T06:38:51;15.50;99.90
34837;DHT22;21053;50.848;4.652;2023-05-10T06:41:19;15.50;99.90
34837;DHT22;21053;50.848;4.652;2023-05-10T06:43:48;15.50;99.90
34837;DHT22;21053;50.848;4.652;2023-05-10T06:46:17;15.50;99.90
34837;DHT22;21053;50.848;4.652;2023-05-10T06:48:46;15.50;99.90
34837;DHT22;21053;50.848;4.652;2023-05-10T06:51:14;15.40;99.90
34837;DHT22;21053;50.848;4.652;2023-05-10T06:53:40;15.40;99.90
34837;DHT22;21053;50.848;4.652;2023-05-10T06:56:06;15.40;99.90
34837;DHT22;21053;50.848;4.652;2023-05-10T06:58:35;15.30;99.90
34837;DHT22;21053;50.848;4.652;2023-05-10T07:01:03;15.30;99.90
34837;DHT22;21053;50.848;4.652;2023-05-10T07:03:31;15.20;99.90
34837;DHT22;21053;50.848;4.652;2023-05-10T07:06:02;15.10;99.90
34837;DHT22;21053;50.848;4.652;2023-05-10T07:08:33;14.90;99.90
34837;DHT22;21053;50.848;4.652;2023-05-10T07:11:07;14.90;99.90
34837;DHT22;21053;50.848;4.652;2023-05-10T07:13:35;15.00;99.90
34837;DHT22;21053;50.848;4.652;2023-05-10T07:16:03;15.00;99.90
34837;DHT22;21053;50.848;4.652;2023-05-10T07:18:33;15.10;99.90
34837;DHT22;21053;50.848;4.652;2023-05-10T07:20:59;15.20;99.90
34837;DHT22;21053;50.848;4.652;2023-05-10T07:23:25;15.10;99.90
34837;DHT22;21053;50.848;4.652;2023-05-10T07:25:52;15.10;99.90
34837;DHT22;21053;50.848;4.652;2023-05-10T07:28:20;15.10;99.90
34837;DHT22;21053;50.848;4.652;2023-05-10T07:30:47;15.00;99.90
34837;DHT22;21053;50.848;4.652;2023-05-10T07:33:14;14.90;99.90
34837;DHT22;21053;50.848;4.652;2023-05-10T07:35:43;14.90;99.90
34837;DHT22;21053;50.848;4.652;2023-05-10T07:38:11;14.90;99.90
34837;DHT22;21053;50.848;4.652;2023-05-10T07:40:40;15.00;99.90
34837;DHT22;21053;50.848;4.652;2023-05-10T07:43:09;14.90;99.90
34837;DHT22;21053;50.848;4.652;2023-05-10T07:45:38;15.00;99.90
34837;DHT22;21053;50.848;4.652;2023-05-10T07:48:07;15.00;99.90
34837;DHT22;21053;50.848;4.652;2023-05-10T07:50:35;14.90;99.90
34837;DHT22;21053;50.848;4.652;2023-05-10T07:53:03;15.00;99.90
34837;DHT22;21053;50.848;4.652;2023-05-10T07:55:29;15.00;99.90
34837;DHT22;21053;50.848;4.652;2023-05-10T07:57:55;15.00;99.90
34837;DHT22;21053;50.848;4.652;2023-05-10T08:00:24;15.00;99.90
34837;DHT22;21053;50.848;4.652;2023-05-10T08:02:53;15.00;99.90
34837;DHT22;21053;50.848;4.652;2023-05-10T08:05:21;14.90;99.90
34837;DHT22;21053;50.848;4.652;2023-05-10T08:07:48;14.70;99.90
34837;DHT22;21053;50.848;4.652;2023-05-10T08:10:16;14.50;99.90
34837;DHT22;21053;50.848;4.652;2023-05-10T08:12:45;14.50;99.90
34837;DHT22;21053;50.848;4.652;2023-05-10T08:15:11;14.60;99.90
34837;DHT22;21053;50.848;4.652;2023-05-10T08:17:40;14.70;99.90
34837;DHT22;21053;50.848;4.652;2023-05-10T08:20:09;14.70;99.90
34837;DHT22;21053;50.848;4.652;2023-05-10T08:22:38;14.70;99.90
34837;DHT22;21053;50.848;4.652;2023-05-10T08:25:07;14.70;99.90
34837;DHT22;21053;50.848;4.652;2023-05-10T08:27:33;14.70;99.90
34837;DHT22;21053;50.848;4.652;2023-05-10T08:30:00;14.70;99.90
34837;DHT22;21053;50.848;4.652;2023-05-10T08:32:27;14.80;99.90
34837;DHT22;21053;50.848;4.652;2023-05-10T08:34:53;14.80;99.90
34837;DHT22;21053;50.848;4.652;2023-05-10T08:37:20;14.90;99.90
34837;DHT22;21053;50.848;4.652;2023-05-10T08:39:49;15.00;99.90
34837;DHT22;21053;50.848;4.652;2023-05-10T08:42:19;15.00;99.90
34837;DHT22;21053;50.848;4.652;2023-05-10T08:44:48;15.00;99.90
34837;DHT22;21053;50.848;4.652;2023-05-10T08:47:18;14.80;99.90
34837;DHT22;21053;50.848;4.652;2023-05-10T08:49:47;14.90;99.90
34837;DHT22;21053;50.848;4.652;2023-05-10T08:52:17;15.10;99.90
34837;DHT22;21053;50.848;4.652;2023-05-10T08:54:43;15.10;99.90
34837;DHT22;21053;50.848;4.652;2023-05-10T08:57:11;15.20;99.90
34837;DHT22;21053;50.848;4.652;2023-05-10T08:59:43;15.10;99.90
34837;DHT22;21053;50.848;4.652;2023-05-10T09:02:11;15.10;99.90
34837;DHT22;21053;50.848;4.652;2023-05-10T09:04:38;15.20;99.90
34837;DHT22;21053;50.848;4.652;2023-05-10T09:07:07;15.10;99.90
34837;DHT22;21053;50.848;4.652;2023-05-10T09:09:36;15.20;99.90
34837;DHT22;21053;50.848;4.652;2023-05-10T09:12:02;15.10;99.90
34837;DHT22;21053;50.848;4.652;2023-05-10T09:14:34;15.10;99.90
34837;DHT22;21053;50.848;4.652;2023-05-10T09:17:04;15.10;99.90
34837;DHT22;21053;50.848;4.652;2023-05-10T09:19:32;15.10;99.90
34837;DHT22;21053;50.848;4.652;2023-05-10T09:21:57;15.30;99.90
34837;DHT22;21053;50.848;4.652;2023-05-10T09:24:29;15.30;99.90
34837;DHT22;21053;50.848;4.652;2023-05-10T09:26:57;15.30;99.90
34837;DHT22;21053;50.848;4.652;2023-05-10T09:29:39;15.30;99.90
34837;DHT22;21053;50.848;4.652;2023-05-10T09:32:05;15.30;99.90
34837;DHT22;21053;50.848;4.652;2023-05-10T09:34:32;15.40;99.90
34837;DHT22;21053;50.848;4.652;2023-05-10T09:37:01;15.40;99.90
34837;DHT22;21053;50.848;4.652;2023-05-10T09:39:35;15.30;99.90
34837;DHT22;21053;50.848;4.652;2023-05-10T09:42:09;15.30;99.90
34837;DHT22;21053;50.848;4.652;2023-05-10T09:44:38;15.30;99.90
34837;DHT22;21053;50.848;4.652;2023-05-10T09:47:08;15.40;99.90
34837;DHT22;21053;50.848;4.652;2023-05-10T09:49:41;15.20;99.90
34837;DHT22;21053;50.848;4.652;2023-05-10T09:52:10;15.20;99.90
34837;DHT22;21053;50.848;4.652;2023-05-10T09:54:36;15.30;99.90
34837;DHT22;21053;50.848;4.652;2023-05-10T09:57:05;15.30;99.90
34837;DHT22;21053;50.848;4.652;2023-05-10T09:59:33;15.30;99.90
34837;DHT22;21053;50.848;4.652;2023-05-10T10:02:02;15.30;99.90
34837;DHT22;21053;50.848;4.652;2023-05-10T10:04:31;15.40;99.90
34837;DHT22;21053;50.848;4.652;2023-05-10T10:07:06;15.40;99.90
34837;DHT22;21053;50.848;4.652;2023-05-10T10:09:34;15.30;99.90
34837;DHT22;21053;50.848;4.652;2023-05-10T10:12:02;15.40;99.90
34837;DHT22;21053;50.848;4.652;2023-05-10T10:14:31;15.50;99.90
34837;DHT22;21053;50.848;4.652;2023-05-10T10:17:00;15.50;99.90
34837;DHT22;21053;50.848;4.652;2023-05-10T10:19:30;15.50;99.90
34837;DHT22;21053;50.848;4.652;2023-05-10T10:22:01;15.60;99.90
34837;DHT22;21053;50.848;4.652;2023-05-10T10:24:28;15.60;99.90
34837;DHT22;21053;50.848;4.652;2023-05-10T10:26:59;15.70;99.90
34837;DHT22;21053;50.848;4.652;2023-05-10T10:29:43;15.60;99.90
34837;DHT22;21053;50.848;4.652;2023-05-10T10:35:23;15.50;99.90
34837;DHT22;21053;50.848;4.652;2023-05-10T10:37:51;15.50;99.90
34837;DHT22;21053;50.848;4.652;2023-05-10T10:40:31;15.60;99.90
34837;DHT22;21053;50.848;4.652;2023-05-10T10:43:25;15.70;99.90
34837;DHT22;21053;50.848;4.652;2023-05-10T10:46:10;15.90;99.90
34837;DHT22;21053;50.848;4.652;2023-05-10T10:48:40;16.00;99.90
34837;DHT22;21053;50.848;4.652;2023-05-10T10:51:09;16.10;99.90
34837;DHT22;21053;50.848;4.652;2023-05-10T10:53:37;16.20;99.90
34837;DHT22;21053;50.848;4.652;2023-05-10T10:56:11;16.20;99.90
34837;DHT22;21053;50.848;4.652;2023-05-10T10:58:39;16.40;99.90
34837;DHT22;21053;50.848;4.652;2023-05-10T11:03:40;16.60;99.90
34837;DHT22;21053;50.848;4.652;2023-05-10T11:06:06;16.60;99.90
34837;DHT22;21053;50.848;4.652;2023-05-10T11:08:35;16.60;99.90
34837;DHT22;21053;50.848;4.652;2023-05-10T11:11:06;16.80;99.90
34837;DHT22;21053;50.848;4.652;2023-05-10T11:13:44;16.90;99.90
34837;DHT22;21053;50.848;4.652;2023-05-10T11:16:23;17.10;99.90
34837;DHT22;21053;50.848;4.652;2023-05-10T11:19:07;17.10;99.90
34837;DHT22;21053;50.848;4.652;2023-05-10T11:21:50;17.50;99.90
34837;DHT22;21053;50.848;4.652;2023-05-10T11:24:20;17.50;99.90
34837;DHT22;21053;50.848;4.652;2023-05-10T11:26:49;17.60;99.90
34837;DHT22;21053;50.848;4.652;2023-05-10T11:29:16;17.90;99.90
34837;DHT22;21053;50.848;4.652;2023-05-10T11:31:46;18.30;99.90
34837;DHT22;21053;50.848;4.652;2023-05-10T11:34:33;18.80;99.90
34837;DHT22;21053;50.848;4.652;2023-05-10T11:37:02;19.40;99.90
34837;DHT22;21053;50.848;4.652;2023-05-10T11:39:31;19.70;99.90
34837;DHT22;21053;50.848;4.652;2023-05-10T11:41:59;20.10;99.90
34837;DHT22;21053;50.848;4.652;2023-05-10T11:44:32;20.40;99.90
34837;DHT22;21053;50.848;4.652;2023-05-10T11:47:00;20.90;99.90
34837;DHT22;21053;50.848;4.652;2023-05-10T11:49:27;21.00;99.90
34837;DHT22;21053;50.848;4.652;2023-05-10T11:52:05;20.70;99.90
34837;DHT22;21053;50.848;4.652;2023-05-10T11:54:31;20.50;99.90
34837;DHT22;21053;50.848;4.652;2023-05-10T11:56:58;20.30;99.90
34837;DHT22;21053;50.848;4.652;2023-05-10T11:59:25;20.20;99.90
34837;DHT22;21053;50.848;4.652;2023-05-10T12:01:50;20.50;99.90
34837;DHT22;21053;50.848;4.652;2023-05-10T12:04:18;20.50;99.90
34837;DHT22;21053;50.848;4.652;2023-05-10T12:06:45;20.40;99.90
34837;DHT22;21053;50.848;4.652;2023-05-10T12:09:12;20.20;99.90
34837;DHT22;21053;50.848;4.652;2023-05-10T12:11:40;20.20;99.90
34837;DHT22;21053;50.848;4.652;2023-05-10T12:14:08;20.10;99.90
34837;DHT22;21053;50.848;4.652;2023-05-10T12:16:37;20.10;99.90
34837;DHT22;21053;50.848;4.652;2023-05-10T12:19:04;20.30;99.90
34837;DHT22;21053;50.848;4.652;2023-05-10T12:21:33;20.20;99.90
34837;DHT22;21053;50.848;4.652;2023-05-10T12:24:01;20.40;99.90
34837;DHT22;21053;50.848;4.652;2023-05-10T12:26:32;20.40;99.90
34837;DHT22;21053;50.848;4.652;2023-05-10T12:29:14;20.50;99.90
34837;DHT22;21053;50.848;4.652;2023-05-10T12:31:57;20.50;99.90
34837;DHT22;21053;50.848;4.652;2023-05-10T12:34:33;20.40;99.90
34837;DHT22;21053;50.848;4.652;2023-05-10T12:37:03;20.40;99.90
34837;DHT22;21053;50.848;4.652;2023-05-10T12:39:44;20.40;99.90
34837;DHT22;21053;50.848;4.652;2023-05-10T12:44:41;20.20;99.90
34837;DHT22;21053;50.848;4.652;2023-05-10T12:47:08;19.90;99.90
34837;DHT22;21053;50.848;4.652;2023-05-10T12:49:37;19.90;99.90
34837;DHT22;21053;50.848;4.652;2023-05-10T12:52:03;19.80;99.90
34837;DHT22;21053;50.848;4.652;2023-05-10T12:54:36;19.70;99.90
34837;DHT22;21053;50.848;4.652;2023-05-10T12:57:03;19.70;99.90
34837;DHT22;21053;50.848;4.652;2023-05-10T12:59:32;19.80;99.90
34837;DHT22;21053;50.848;4.652;2023-05-10T13:02:00;20.10;99.90
34837;DHT22;21053;50.848;4.652;2023-05-10T13:04:29;20.20;99.90
34837;DHT22;21053;50.848;4.652;2023-05-10T13:06:57;20.30;99.90
34837;DHT22;21053;50.848;4.652;2023-05-10T13:09:26;20.40;99.90
34837;DHT22;21053;50.848;4.652;2023-05-10T13:12:00;20.60;99.90
34837;DHT22;21053;50.848;4.652;2023-05-10T13:14:26;20.70;99.90
34837;DHT22;21053;50.848;4.652;2023-05-10T13:16:52;20.50;99.90
34837;DHT22;21053;50.848;4.652;2023-05-10T13:19:19;20.40;99.90
34837;DHT22;21053;50.848;4.652;2023-05-10T13:21:46;20.30;99.90
34837;DHT22;21053;50.848;4.652;2023-05-10T13:24:13;20.20;99.90
34837;DHT22;21053;50.848;4.652;2023-05-10T13:26:43;20.10;99.90
34837;DHT22;21053;50.848;4.652;2023-05-10T13:29:09;20.10;99.90
34837;DHT22;21053;50.848;4.652;2023-05-10T13:31:36;20.10;99.90
34837;DHT22;21053;50.848;4.652;2023-05-10T13:34:03;20.00;99.90
34837;DHT22;21053;50.848;4.652;2023-05-10T13:36:32;20.00;99.90
34837;DHT22;21053;50.848;4.652;2023-05-10T13:39:00;20.00;99.90
34837;DHT22;21053;50.848;4.652;2023-05-10T13:41:29;19.90;99.90
34837;DHT22;21053;50.848;4.652;2023-05-10T13:43:55;19.90;99.90
34837;DHT22;21053;50.848;4.652;2023-05-10T13:46:22;19.60;99.90
34837;DHT22;21053;50.848;4.652;2023-05-10T13:48:50;19.70;99.90
34837;DHT22;21053;50.848;4.652;2023-05-10T13:51:16;19.70;99.90
34837;DHT22;21053;50.848;4.652;2023-05-10T13:53:43;19.60;99.90
34837;DHT22;21053;50.848;4.652;2023-05-10T13:56:08;19.60;99.90
34837;DHT22;21053;50.848;4.652;2023-05-10T14:01:01;19.40;99.90
34837;DHT22;21053;50.848;4.652;2023-05-10T14:03:28;19.40;99.90
34837;DHT22;21053;50.848;4.652;2023-05-10T14:05:54;19.40;99.90
34837;DHT22;21053;50.848;4.652;2023-05-10T14:08:21;19.60;99.90
34837;DHT22;21053;50.848;4.652;2023-05-10T14:10:48;19.70;99.90
34837;DHT22;21053;50.848;4.652;2023-05-10T14:13:15;19.90;99.90
34837;DHT22;21053;50.848;4.652;2023-05-10T14:15:41;20.00;99.90
34837;DHT22;21053;50.848;4.652;2023-05-10T14:18:06;20.20;99.90
34837;DHT22;21053;50.848;4.652;2023-05-10T14:20:32;20.20;99.90
34837;DHT22;21053;50.848;4.652;2023-05-10T14:23:01;20.20;99.90
34837;DHT22;21053;50.848;4.652;2023-05-10T14:25:27;20.40;99.90
34837;DHT22;21053;50.848;4.652;2023-05-10T14:27:54;20.50;99.90
34837;DHT22;21053;50.848;4.652;2023-05-10T14:30:20;20.50;99.90
34837;DHT22;21053;50.848;4.652;2023-05-10T14:35:15;20.40;99.90
34837;DHT22;21053;50.848;4.652;2023-05-10T14:37:41;20.20;99.90
34837;DHT22;21053;50.848;4.652;2023-05-10T14:40:07;20.10;99.90
34837;DHT22;21053;50.848;4.652;2023-05-10T14:42:33;20.10;99.90
34837;DHT22;21053;50.848;4.652;2023-05-10T14:45:03;20.00;99.90
34837;DHT22;21053;50.848;4.652;2023-05-10T14:47:31;19.90;99.90
34837;DHT22;21053;50.848;4.652;2023-05-10T14:49:58;19.60;99.90
34837;DHT22;21053;50.848;4.652;2023-05-10T14:52:25;19.50;99.90
34837;DHT22;21053;50.848;4.652;2023-05-10T14:54:51;19.60;99.90
34837;DHT22;21053;50.848;4.652;2023-05-10T14:57:18;19.50;99.90
34837;DHT22;21053;50.848;4.652;2023-05-10T14:59:43;19.30;99.90
34837;DHT22;21053;50.848;4.652;2023-05-10T15:02:09;19.40;99.90
34837;DHT22;21053;50.848;4.652;2023-05-10T15:04:35;19.30;99.90
34837;DHT22;21053;50.848;4.652;2023-05-10T15:07:01;19.30;99.90
34837;DHT22;21053;50.848;4.652;2023-05-10T15:09:27;19.20;99.90
34837;DHT22;21053;50.848;4.652;2023-05-10T15:11:55;19.10;99.90
34837;DHT22;21053;50.848;4.652;2023-05-10T15:14:21;19.10;99.90
34837;DHT22;21053;50.848;4.652;2023-05-10T15:16:48;19.00;99.90
34837;DHT22;21053;50.848;4.652;2023-05-10T15:19:15;19.00;99.90
34837;DHT22;21053;50.848;4.652;2023-05-10T15:21:41;19.00;99.90
34837;DHT22;21053;50.848;4.652;2023-05-10T15:24:09;18.90;99.90
34837;DHT22;21053;50.848;4.652;2023-05-10T15:26:35;18.80;99.90
34837;DHT22;21053;50.848;4.652;2023-05-10T15:29:02;18.90;99.90
34837;DHT22;21053;50.848;4.652;2023-05-10T15:31:29;18.80;99.90
34837;DHT22;21053;50.848;4.652;2023-05-10T15:33:58;18.70;99.90
34837;DHT22;21053;50.848;4.652;2023-05-10T15:36:27;18.50;99.90
34837;DHT22;21053;50.848;4.652;2023-05-10T15:38:57;18.30;99.90
34837;DHT22;21053;50.848;4.652;2023-05-10T15:41:23;18.10;99.90
34837;DHT22;21053;50.848;4.652;2023-05-10T15:43:51;17.90;99.90
34837;DHT22;21053;50.848;4.652;2023-05-10T15:46:18;17.60;99.90
34837;DHT22;21053;50.848;4.652;2023-05-10T15:48:44;17.20;99.90
34837;DHT22;21053;50.848;4.652;2023-05-10T15:51:10;17.00;99.90
34837;DHT22;21053;50.848;4.652;2023-05-10T15:53:37;16.80;99.90
34837;DHT22;21053;50.848;4.652;2023-05-10T15:56:04;16.50;99.90
34837;DHT22;21053;50.848;4.652;2023-05-10T15:58:30;16.40;99.90
34837;DHT22;21053;50.848;4.652;2023-05-10T16:00:57;16.20;99.90